sensor_id;sensor_type;location;lat;lon;timestamp;temperature;humidity
16128;DHT22;8168;49.036;7.690;2022-11-20T00:00:22;7.70;99.90
16128;DHT22;8168;49.036;7.690;2022-11-20T00:02:53;7.70;99.90
16128;DHT22;8168;49.036;7.690;2022-11-20T00:05:24;7.70;99.90
16128;DHT22;8168;49.036;7.690;2022-11-20T00:07:55;7.70;99.90
16128;DHT22;8168;49.036;7.690;2022-11-20T00:10:25;7.70;99.90
16128;DHT22;8168;49.036;7.690;2022-11-20T00:12:58;7.70;99.90
16128;DHT22;8168;49.036;7.690;2022-11-20T00:15:29;7.70;99.90
16128;DHT22;8168;49.036;7.690;2022-11-20T00:17:59;7.70;99.90
16128;DHT22;8168;49.036;7.690;2022-11-20T00:20:30;7.70;99.90
16128;DHT22;8168;49.036;7.690;2022-11-20T00:23:01;7.70;99.90
16128;DHT22;8168;49.036;7.690;2022-11-20T00:25:34;7.70;99.90
16128;DHT22;8168;49.036;7.690;2022-11-20T00:28:05;7.70;99.90
16128;DHT22;8168;49.036;7.690;2022-11-20T00:30:36;7.70;99.90
16128;DHT22;8168;49.036;7.690;2022-11-20T00:33:06;7.70;99.90
16128;DHT22;8168;49.036;7.690;2022-11-20T00:35:37;7.70;99.90
16128;DHT22;8168;49.036;7.690;2022-11-20T00:38:07;7.70;99.90
16128;DHT22;8168;49.036;7.690;2022-11-20T00:40:38;7.70;99.90
16128;DHT22;8168;49.036;7.690;2022-11-20T00:43:09;7.70;99.90
16128;DHT22;8168;49.036;7.690;2022-11-20T00:45:39;7.70;99.90
16128;DHT22;8168;49.036;7.690;2022-11-20T00:48:10;7.70;99.90
16128;DHT22;8168;49.036;7.690;2022-11-20T00:50:41;7.70;99.90
16128;DHT22;8168;49.036;7.690;2022-11-20T00:53:12;7.70;99.90
16128;DHT22;8168;49.036;7.690;2022-11-20T00:55:43;7.70;99.90
16128;DHT22;8168;49.036;7.690;2022-11-20T00:58:13;7.80;99.90
16128;DHT22;8168;49.036;7.690;2022-11-20T01:00:44;7.80;99.90
16128;DHT22;8168;49.036;7.690;2022-11-20T01:03:18;7.80;99.90
16128;DHT22;8168;49.036;7.690;2022-11-20T01:05:49;7.80;99.90
16128;DHT22;8168;49.036;7.690;2022-11-20T01:08:19;7.80;99.90
16128;DHT22;8168;49.036;7.690;2022-11-20T01:10:50;7.80;99.90
16128;DHT22;8168;49.036;7.690;2022-11-20T01:13:21;7.80;99.90
16128;DHT22;8168;49.036;7.690;2022-11-20T01:16:25;7.90;99.90
16128;DHT22;8168;49.036;7.690;2022-11-20T01:18:58;7.80;99.90
16128;DHT22;8168;49.036;7.690;2022-11-20T01:21:32;7.80;99.90
16128;DHT22;8168;49.036;7.690;2022-11-20T01:24:04;7.80;99.90
16128;DHT22;8168;49.036;7.690;2022-11-20T01:26:37;7.80;99.90
16128;DHT22;8168;49.036;7.690;2022-11-20T01:29:14;7.80;99.90
16128;DHT22;8168;49.036;7.690;2022-11-20T01:31:45;7.80;99.90
16128;DHT22;8168;49.036;7.690;2022-11-20T01:34:18;7.90;99.90
16128;DHT22;8168;49.036;7.690;2022-11-20T01:36:50;7.90;99.90
16128;DHT22;8168;49.036;7.690;2022-11-20T01:39:24;7.90;99.90
16128;DHT22;8168;49.036;7.690;2022-11-20T01:41:55;7.90;99.90
16128;DHT22;8168;49.036;7.690;2022-11-20T01:45:00;7.90;99.90
16128;DHT22;8168;49.036;7.690;2022-11-20T01:47:56;7.90;99.90
16128;DHT22;8168;49.036;7.690;2022-11-20T01:50:28;7.90;99.90
16128;DHT22;8168;49.036;7.690;2022-11-20T01:53:05;7.90;99.90
16128;DHT22;8168;49.036;7.690;2022-11-20T01:55:41;8.00;99.90
16128;DHT22;8168;49.036;7.690;2022-11-20T01:58:15;7.90;99.90
16128;DHT22;8168;49.036;7.690;2022-11-20T02:00:47;7.90;99.90
16128;DHT22;8168;49.036;7.690;2022-11-20T02:03:18;7.90;99.90
16128;DHT22;8168;49.036;7.690;2022-11-20T02:08:42;10.10;99.90
16128;DHT22;8168;49.036;7.690;2022-11-20T02:11:12;7.90;99.90
16128;DHT22;8168;49.036;7.690;2022-11-20T02:13:43;7.90;99.90
16128;DHT22;8168;49.036;7.690;2022-11-20T02:18:45;7.90;99.90
16128;DHT22;8168;49.036;7.690;2022-11-20T02:24:10;7.90;99.90
16128;DHT22;8168;49.036;7.690;2022-11-20T02:26:53;7.90;99.90
16128;DHT22;8168;49.036;7.690;2022-11-20T02:29:49;7.90;99.90
16128;DHT22;8168;49.036;7.690;2022-11-20T02:32:22;7.90;99.90
16128;DHT22;8168;49.036;7.690;2022-11-20T02:34:54;7.90;99.90
16128;DHT22;8168;49.036;7.690;2022-11-20T02:37:32;7.90;99.90
16128;DHT22;8168;49.036;7.690;2022-11-20T02:40:04;8.00;99.90
16128;DHT22;8168;49.036;7.690;2022-11-20T02:42:36;7.90;99.90
16128;DHT22;8168;49.036;7.690;2022-11-20T02:45:07;8.00;99.90
16128;DHT22;8168;49.036;7.690;2022-11-20T02:47:38;8.00;99.90
16128;DHT22;8168;49.036;7.690;2022-11-20T02:50:09;8.00;99.90
16128;DHT22;8168;49.036;7.690;2022-11-20T02:52:40;7.90;99.90
16128;DHT22;8168;49.036;7.690;2022-11-20T02:55:10;8.00;99.90
16128;DHT22;8168;49.036;7.690;2022-11-20T02:57:41;8.00;99.90
16128;DHT22;8168;49.036;7.690;2022-11-20T03:00:12;8.00;99.90
16128;DHT22;8168;49.036;7.690;2022-11-20T03:02:43;7.90;99.90
16128;DHT22;8168;49.036;7.690;2022-11-20T03:05:13;8.00;99.90
16128;DHT22;8168;49.036;7.690;2022-11-20T03:07:44;8.00;99.90
16128;DHT22;8168;49.036;7.690;2022-11-20T03:10:15;8.00;99.90
16128;DHT22;8168;49.036;7.690;2022-11-20T03:12:45;8.00;99.90
16128;DHT22;8168;49.036;7.690;2022-11-20T03:15:16;8.00;99.90
16128;DHT22;8168;49.036;7.690;2022-11-20T03:17:47;8.00;99.90
16128;DHT22;8168;49.036;7.690;2022-11-20T03:20:17;8.00;99.90
16128;DHT22;8168;49.036;7.690;2022-11-20T03:22:48;8.00;99.90
16128;DHT22;8168;49.036;7.690;2022-11-20T03:25:18;8.00;99.90
16128;DHT22;8168;49.036;7.690;2022-11-20T03:27:49;8.00;99.90
16128;DHT22;8168;49.036;7.690;2022-11-20T03:30:20;8.00;99.90
16128;DHT22;8168;49.036;7.690;2022-11-20T03:32:53;5.10;99.90
16128;DHT22;8168;49.036;7.690;2022-11-20T03:35:24;8.00;99.90
16128;DHT22;8168;49.036;7.690;2022-11-20T03:37:54;8.00;99.90
16128;DHT22;8168;49.036;7.690;2022-11-20T03:40:25;8.00;99.90
16128;DHT22;8168;49.036;7.690;2022-11-20T03:42:56;8.00;99.90
16128;DHT22;8168;49.036;7.690;2022-11-20T03:45:26;8.00;99.90
16128;DHT22;8168;49.036;7.690;2022-11-20T03:47:57;8.00;99.90
16128;DHT22;8168;49.036;7.690;2022-11-20T03:50:27;8.00;99.90
16128;DHT22;8168;49.036;7.690;2022-11-20T03:52:58;8.00;99.90
16128;DHT22;8168;49.036;7.690;2022-11-20T03:55:29;8.00;99.90
16128;DHT22;8168;49.036;7.690;2022-11-20T03:57:59;7.90;99.90
16128;DHT22;8168;49.036;7.690;2022-11-20T04:00:30;7.90;99.90
16128;DHT22;8168;49.036;7.690;2022-11-20T04:03:01;7.90;99.90
16128;DHT22;8168;49.036;7.690;2022-11-20T04:05:33;7.90;99.90
16128;DHT22;8168;49.036;7.690;2022-11-20T04:08:04;7.90;99.90
16128;DHT22;8168;49.036;7.690;2022-11-20T04:10:38;8.00;99.90
16128;DHT22;8168;49.036;7.690;2022-11-20T04:13:09;8.00;99.90
16128;DHT22;8168;49.036;7.690;2022-11-20T04:15:39;8.00;99.90
16128;DHT22;8168;49.036;7.690;2022-11-20T04:18:10;8.00;99.90
16128;DHT22;8168;49.036;7.690;2022-11-20T04:20:40;7.00;99.90
16128;DHT22;8168;49.036;7.690;2022-11-20T04:23:11;8.00;99.90
16128;DHT22;8168;49.036;7.690;2022-11-20T04:25:42;8.00;99.90
16128;DHT22;8168;49.036;7.690;2022-11-20T04:28:12;8.00;99.90
16128;DHT22;8168;49.036;7.690;2022-11-20T04:30:43;8.00;99.90
16128;DHT22;8168;49.036;7.690;2022-11-20T04:33:14;8.00;99.90
16128;DHT22;8168;49.036;7.690;2022-11-20T04:35:46;8.00;99.90
16128;DHT22;8168;49.036;7.690;2022-11-20T04:38:18;8.00;99.90
16128;DHT22;8168;49.036;7.690;2022-11-20T04:40:48;8.00;99.90
16128;DHT22;8168;49.036;7.690;2022-11-20T04:43:19;8.00;99.90
16128;DHT22;8168;49.036;7.690;2022-11-20T04:45:54;8.00;99.90
16128;DHT22;8168;49.036;7.690;2022-11-20T04:48:25;8.00;99.90
16128;DHT22;8168;49.036;7.690;2022-11-20T04:50:56;8.00;99.90
16128;DHT22;8168;49.036;7.690;2022-11-20T04:53:27;8.00;99.90
16128;DHT22;8168;49.036;7.690;2022-11-20T04:56:05;8.00;99.90
16128;DHT22;8168;49.036;7.690;2022-11-20T04:58:36;8.00;99.90
16128;DHT22;8168;49.036;7.690;2022-11-20T05:01:11;8.00;99.90
16128;DHT22;8168;49.036;7.690;2022-11-20T05:03:43;8.10;99.90
16128;DHT22;8168;49.036;7.690;2022-11-20T05:06:16;8.10;99.90
16128;DHT22;8168;49.036;7.690;2022-11-20T05:08:47;8.00;99.90
16128;DHT22;8168;49.036;7.690;2022-11-20T05:11:20;8.00;99.90
16128;DHT22;8168;49.036;7.690;2022-11-20T05:13:52;8.00;99.90
16128;DHT22;8168;49.036;7.690;2022-11-20T05:16:24;8.00;99.90
16128;DHT22;8168;49.036;7.690;2022-11-20T05:18:55;8.00;99.90
16128;DHT22;8168;49.036;7.690;2022-11-20T05:21:25;8.00;99.90
16128;DHT22;8168;49.036;7.690;2022-11-20T05:23:56;8.00;99.90
16128;DHT22;8168;49.036;7.690;2022-11-20T05:26:27;8.00;99.90
16128;DHT22;8168;49.036;7.690;2022-11-20T05:28:57;7.90;99.90
16128;DHT22;8168;49.036;7.690;2022-11-20T05:31:28;7.90;99.90
16128;DHT22;8168;49.036;7.690;2022-11-20T05:33:58;7.90;99.90
16128;DHT22;8168;49.036;7.690;2022-11-20T05:36:29;7.90;99.90
16128;DHT22;8168;49.036;7.690;2022-11-20T05:39:00;7.90;99.90
16128;DHT22;8168;49.036;7.690;2022-11-20T05:41:33;7.90;99.90
16128;DHT22;8168;49.036;7.690;2022-11-20T05:44:04;7.90;99.90
16128;DHT22;8168;49.036;7.690;2022-11-20T05:46:34;7.90;99.90
16128;DHT22;8168;49.036;7.690;2022-11-20T05:49:05;7.80;99.90
16128;DHT22;8168;49.036;7.690;2022-11-20T05:51:36;7.80;99.90
16128;DHT22;8168;49.036;7.690;2022-11-20T05:54:06;7.80;99.90
16128;DHT22;8168;49.036;7.690;2022-11-20T05:56:37;7.80;99.90
16128;DHT22;8168;49.036;7.690;2022-11-20T05:59:07;6.30;99.90
16128;DHT22;8168;49.036;7.690;2022-11-20T06:01:38;7.80;99.90
16128;DHT22;8168;49.036;7.690;2022-11-20T06:04:09;7.80;99.90
16128;DHT22;8168;49.036;7.690;2022-11-20T06:06:39;7.80;99.90
16128;DHT22;8168;49.036;7.690;2022-11-20T06:09:10;7.80;99.90
16128;DHT22;8168;49.036;7.690;2022-11-20T06:11:41;7.80;99.90
16128;DHT22;8168;49.036;7.690;2022-11-20T06:14:11;7.80;99.90
16128;DHT22;8168;49.036;7.690;2022-11-20T06:16:42;7.80;99.90
16128;DHT22;8168;49.036;7.690;2022-11-20T06:19:12;7.80;99.90
16128;DHT22;8168;49.036;7.690;2022-11-20T06:21:43;7.90;99.90
16128;DHT22;8168;49.036;7.690;2022-11-20T06:24:14;7.90;99.90
16128;DHT22;8168;49.036;7.690;2022-11-20T06:26:45;7.80;99.90
16128;DHT22;8168;49.036;7.690;2022-11-20T06:29:15;7.90;99.90
16128;DHT22;8168;49.036;7.690;2022-11-20T06:31:46;7.80;99.90
16128;DHT22;8168;49.036;7.690;2022-11-20T06:34:17;7.90;99.90
16128;DHT22;8168;49.036;7.690;2022-11-20T06:36:47;7.80;99.90
16128;DHT22;8168;49.036;7.690;2022-11-20T06:39:18;7.80;99.90
16128;DHT22;8168;49.036;7.690;2022-11-20T06:41:48;7.90;99.90
16128;DHT22;8168;49.036;7.690;2022-11-20T06:44:19;7.80;99.90
16128;DHT22;8168;49.036;7.690;2022-11-20T06:46:49;7.90;99.90
16128;DHT22;8168;49.036;7.690;2022-11-20T06:49:20;7.90;99.90
16128;DHT22;8168;49.036;7.690;2022-11-20T06:51:51;7.90;99.90
16128;DHT22;8168;49.036;7.690;2022-11-20T06:54:21;7.90;99.90
16128;DHT22;8168;49.036;7.690;2022-11-20T06:56:52;7.90;99.90
16128;DHT22;8168;49.036;7.690;2022-11-20T06:59:22;7.90;99.90
16128;DHT22;8168;49.036;7.690;2022-11-20T07:01:53;7.90;99.90
16128;DHT22;8168;49.036;7.690;2022-11-20T07:04:24;7.90;99.90
16128;DHT22;8168;49.036;7.690;2022-11-20T07:06:54;7.90;99.90
16128;DHT22;8168;49.036;7.690;2022-11-20T07:09:25;8.00;99.90
16128;DHT22;8168;49.036;7.690;2022-11-20T07:11:55;8.00;99.90
16128;DHT22;8168;49.036;7.690;2022-11-20T07:14:26;8.00;99.90
16128;DHT22;8168;49.036;7.690;2022-11-20T07:16:57;7.90;99.90
16128;DHT22;8168;49.036;7.690;2022-11-20T07:19:27;8.00;99.90
16128;DHT22;8168;49.036;7.690;2022-11-20T07:21:58;8.00;99.90
16128;DHT22;8168;49.036;7.690;2022-11-20T07:24:28;7.90;99.90
16128;DHT22;8168;49.036;7.690;2022-11-20T07:26:59;7.90;99.90
16128;DHT22;8168;49.036;7.690;2022-11-20T07:29:30;7.90;99.90
16128;DHT22;8168;49.036;7.690;2022-11-20T07:32:00;7.90;99.90
16128;DHT22;8168;49.036;7.690;2022-11-20T07:34:31;7.90;99.90
16128;DHT22;8168;49.036;7.690;2022-11-20T07:37:01;7.90;99.90
16128;DHT22;8168;49.036;7.690;2022-11-20T07:39:32;7.90;99.90
16128;DHT22;8168;49.036;7.690;2022-11-20T07:42:03;7.90;99.90
16128;DHT22;8168;49.036;7.690;2022-11-20T07:44:34;7.90;99.90
16128;DHT22;8168;49.036;7.690;2022-11-20T07:47:04;7.90;99.90
16128;DHT22;8168;49.036;7.690;2022-11-20T07:49:35;7.90;99.90
16128;DHT22;8168;49.036;7.690;2022-11-20T07:52:06;7.90;99.90
16128;DHT22;8168;49.036;7.690;2022-11-20T07:54:36;7.90;99.90
16128;DHT22;8168;49.036;7.690;2022-11-20T07:57:08;8.00;99.90
16128;DHT22;8168;49.036;7.690;2022-11-20T07:59:38;8.00;99.90
16128;DHT22;8168;49.036;7.690;2022-11-20T08:02:12;7.90;99.90
16128;DHT22;8168;49.036;7.690;2022-11-20T08:04:42;7.90;99.90
16128;DHT22;8168;49.036;7.690;2022-11-20T08:07:13;7.90;99.90
16128;DHT22;8168;49.036;7.690;2022-11-20T08:09:43;7.90;99.90
16128;DHT22;8168;49.036;7.690;2022-11-20T08:12:19;7.90;99.90
16128;DHT22;8168;49.036;7.690;2022-11-20T08:15:09;7.90;99.90
16128;DHT22;8168;49.036;7.690;2022-11-20T08:17:40;7.90;99.90
16128;DHT22;8168;49.036;7.690;2022-11-20T08:20:10;7.90;99.90
16128;DHT22;8168;49.036;7.690;2022-11-20T08:22:41;7.90;99.90
16128;DHT22;8168;49.036;7.690;2022-11-20T08:25:11;7.90;99.90
16128;DHT22;8168;49.036;7.690;2022-11-20T08:27:42;7.90;99.90
16128;DHT22;8168;49.036;7.690;2022-11-20T08:30:13;7.90;99.90
16128;DHT22;8168;49.036;7.690;2022-11-20T08:32:44;7.90;99.90
16128;DHT22;8168;49.036;7.690;2022-11-20T08:35:18;7.90;99.90
16128;DHT22;8168;49.036;7.690;2022-11-20T08:37:49;7.80;99.90
16128;DHT22;8168;49.036;7.690;2022-11-20T08:40:20;7.90;99.90
16128;DHT22;8168;49.036;7.690;2022-11-20T08:42:51;7.80;99.90
16128;DHT22;8168;49.036;7.690;2022-11-20T08:45:21;7.80;99.90
16128;DHT22;8168;49.036;7.690;2022-11-20T08:47:52;7.80;99.90
16128;DHT22;8168;49.036;7.690;2022-11-20T08:50:23;7.90;99.90
16128;DHT22;8168;49.036;7.690;2022-11-20T08:52:53;7.90;99.90
16128;DHT22;8168;49.036;7.690;2022-11-20T08:55:24;7.80;99.90
16128;DHT22;8168;49.036;7.690;2022-11-20T08:57:55;7.80;99.90
16128;DHT22;8168;49.036;7.690;2022-11-20T09:00:25;7.80;99.90
16128;DHT22;8168;49.036;7.690;2022-11-20T09:02:56;7.80;99.90
16128;DHT22;8168;49.036;7.690;2022-11-20T09:05:29;7.80;99.90
16128;DHT22;8168;49.036;7.690;2022-11-20T09:07:59;7.80;99.90
16128;DHT22;8168;49.036;7.690;2022-11-20T09:10:30;7.80;99.90
16128;DHT22;8168;49.036;7.690;2022-11-20T09:13:01;7.80;99.90
16128;DHT22;8168;49.036;7.690;2022-11-20T09:15:32;7.80;99.90
16128;DHT22;8168;49.036;7.690;2022-11-20T09:18:03;7.90;99.90
16128;DHT22;8168;49.036;7.690;2022-11-20T09:20:35;7.90;99.90
16128;DHT22;8168;49.036;7.690;2022-11-20T09:23:05;7.90;99.90
16128;DHT22;8168;49.036;7.690;2022-11-20T09:25:36;8.00;99.90
16128;DHT22;8168;49.036;7.690;2022-11-20T09:28:07;8.00;99.90
16128;DHT22;8168;49.036;7.690;2022-11-20T09:30:37;8.10;99.90
16128;DHT22;8168;49.036;7.690;2022-11-20T09:33:08;8.10;99.90
16128;DHT22;8168;49.036;7.690;2022-11-20T09:35:38;8.20;99.90
16128;DHT22;8168;49.036;7.690;2022-11-20T09:38:10;8.20;99.90
16128;DHT22;8168;49.036;7.690;2022-11-20T09:40:50;8.20;99.90
16128;DHT22;8168;49.036;7.690;2022-11-20T09:46:05;8.20;99.90
16128;DHT22;8168;49.036;7.690;2022-11-20T09:48:53;8.20;99.90
16128;DHT22;8168;49.036;7.690;2022-11-20T09:54:30;8.20;99.90
16128;DHT22;8168;49.036;7.690;2022-11-20T09:57:05;8.20;99.90
16128;DHT22;8168;49.036;7.690;2022-11-20T09:59:46;8.20;99.90
16128;DHT22;8168;49.036;7.690;2022-11-20T10:02:34;8.30;99.90
16128;DHT22;8168;49.036;7.690;2022-11-20T10:05:11;8.30;99.90
16128;DHT22;8168;49.036;7.690;2022-11-20T10:11:28;8.30;99.90
16128;DHT22;8168;49.036;7.690;2022-11-20T10:14:16;8.30;99.90
16128;DHT22;8168;49.036;7.690;2022-11-20T10:17:08;8.30;99.90
16128;DHT22;8168;49.036;7.690;2022-11-20T10:25:18;8.40;99.90
16128;DHT22;8168;49.036;7.690;2022-11-20T10:30:42;8.40;99.90
16128;DHT22;8168;49.036;7.690;2022-11-20T10:33:17;8.50;99.90
16128;DHT22;8168;49.036;7.690;2022-11-20T10:36:13;8.60;99.90
16128;DHT22;8168;49.036;7.690;2022-11-20T10:38:51;8.60;99.90
16128;DHT22;8168;49.036;7.690;2022-11-20T10:41:34;8.70;99.90
16128;DHT22;8168;49.036;7.690;2022-11-20T10:44:27;8.90;99.90
16128;DHT22;8168;49.036;7.690;2022-11-20T10:47:18;9.00;99.90
16128;DHT22;8168;49.036;7.690;2022-11-20T10:49:51;9.70;99.90
16128;DHT22;8168;49.036;7.690;2022-11-20T10:58:08;9.30;99.90
16128;DHT22;8168;49.036;7.690;2022-11-20T11:00:40;9.40;99.90
16128;DHT22;8168;49.036;7.690;2022-11-20T11:03:25;9.30;99.90
16128;DHT22;8168;49.036;7.690;2022-11-20T11:06:07;9.30;99.90
16128;DHT22;8168;49.036;7.690;2022-11-20T11:08:39;9.40;99.90
16128;DHT22;8168;49.036;7.690;2022-11-20T11:11:25;9.30;99.90
16128;DHT22;8168;49.036;7.690;2022-11-20T11:14:11;9.30;99.90
16128;DHT22;8168;49.036;7.690;2022-11-20T11:16:54;9.30;99.90
16128;DHT22;8168;49.036;7.690;2022-11-20T11:19:25;9.30;99.90
16128;DHT22;8168;49.036;7.690;2022-11-20T11:21:56;9.30;99.90
16128;DHT22;8168;49.036;7.690;2022-11-20T11:24:29;9.40;99.90
16128;DHT22;8168;49.036;7.690;2022-11-20T11:27:02;9.40;99.90
16128;DHT22;8168;49.036;7.690;2022-11-20T11:29:34;9.50;99.90
16128;DHT22;8168;49.036;7.690;2022-11-20T11:32:07;9.50;99.90
16128;DHT22;8168;49.036;7.690;2022-11-20T11:34:38;9.50;99.90
16128;DHT22;8168;49.036;7.690;2022-11-20T11:37:19;9.50;99.90
16128;DHT22;8168;49.036;7.690;2022-11-20T11:39:51;9.60;99.90
16128;DHT22;8168;49.036;7.690;2022-11-20T11:42:22;10.00;99.90
16128;DHT22;8168;49.036;7.690;2022-11-20T11:44:54;10.30;99.90
16128;DHT22;8168;49.036;7.690;2022-11-20T11:47:43;10.70;99.90
16128;DHT22;8168;49.036;7.690;2022-11-20T11:50:23;10.70;99.90
16128;DHT22;8168;49.036;7.690;2022-11-20T12:01:36;10.10;99.90
16128;DHT22;8168;49.036;7.690;2022-11-20T12:04:38;9.80;99.90
16128;DHT22;8168;49.036;7.690;2022-11-20T12:07:27;9.70;99.90
16128;DHT22;8168;49.036;7.690;2022-11-20T12:10:01;9.70;99.90
16128;DHT22;8168;49.036;7.690;2022-11-20T12:12:42;9.60;99.90
16128;DHT22;8168;49.036;7.690;2022-11-20T12:15:26;9.50;99.90
16128;DHT22;8168;49.036;7.690;2022-11-20T12:17:57;9.60;99.90
16128;DHT22;8168;49.036;7.690;2022-11-20T12:20:33;9.50;99.90
16128;DHT22;8168;49.036;7.690;2022-11-20T12:23:14;9.50;99.90
16128;DHT22;8168;49.036;7.690;2022-11-20T12:25:50;9.60;99.90
16128;DHT22;8168;49.036;7.690;2022-11-20T12:28:58;9.80;99.90
16128;DHT22;8168;49.036;7.690;2022-11-20T12:31:38;9.80;99.90
16128;DHT22;8168;49.036;7.690;2022-11-20T12:43:34;9.50;99.90
16128;DHT22;8168;49.036;7.690;2022-11-20T12:49:30;9.40;99.90
16128;DHT22;8168;49.036;7.690;2022-11-20T12:52:17;9.40;99.90
16128;DHT22;8168;49.036;7.690;2022-11-20T12:57:47;7.00;99.90
16128;DHT22;8168;49.036;7.690;2022-11-20T13:00:22;9.50;99.90
16128;DHT22;8168;49.036;7.690;2022-11-20T13:08:24;9.60;99.90
16128;DHT22;8168;49.036;7.690;2022-11-20T13:19:27;9.60;99.90
16128;DHT22;8168;49.036;7.690;2022-11-20T13:21:59;9.60;99.90
16128;DHT22;8168;49.036;7.690;2022-11-20T13:24:31;9.60;99.90
16128;DHT22;8168;49.036;7.690;2022-11-20T13:27:16;9.60;99.90
16128;DHT22;8168;49.036;7.690;2022-11-20T13:30:00;9.60;99.90
16128;DHT22;8168;49.036;7.690;2022-11-20T13:32:31;9.50;99.90
16128;DHT22;8168;49.036;7.690;2022-11-20T13:35:04;9.50;99.90
16128;DHT22;8168;49.036;7.690;2022-11-20T13:37:37;9.50;99.90
16128;DHT22;8168;49.036;7.690;2022-11-20T13:45:29;9.70;99.90
16128;DHT22;8168;49.036;7.690;2022-11-20T13:48:22;9.70;99.90
16128;DHT22;8168;49.036;7.690;2022-11-20T14:00:45;9.50;99.90
16128;DHT22;8168;49.036;7.690;2022-11-20T14:03:21;9.50;99.90
16128;DHT22;8168;49.036;7.690;2022-11-20T14:05:59;9.50;99.90
16128;DHT22;8168;49.036;7.690;2022-11-20T14:08:43;9.40;99.90
16128;DHT22;8168;49.036;7.690;2022-11-20T14:11:18;9.40;99.90
16128;DHT22;8168;49.036;7.690;2022-11-20T14:13:59;9.30;99.90
16128;DHT22;8168;49.036;7.690;2022-11-20T14:16:34;9.30;99.90
16128;DHT22;8168;49.036;7.690;2022-11-20T14:27:53;9.20;99.90
16128;DHT22;8168;49.036;7.690;2022-11-20T14:33:03;9.20;99.90
16128;DHT22;8168;49.036;7.690;2022-11-20T14:35:39;9.20;99.90
16128;DHT22;8168;49.036;7.690;2022-11-20T14:38:14;9.20;99.90
16128;DHT22;8168;49.036;7.690;2022-11-20T14:40:45;9.20;99.90
16128;DHT22;8168;49.036;7.690;2022-11-20T14:43:25;9.20;99.90
16128;DHT22;8168;49.036;7.690;2022-11-20T14:45:59;9.10;99.90
16128;DHT22;8168;49.036;7.690;2022-11-20T14:48:33;9.10;99.90
16128;DHT22;8168;49.036;7.690;2022-11-20T14:51:10;9.00;99.90
16128;DHT22;8168;49.036;7.690;2022-11-20T14:53:40;9.00;99.90
16128;DHT22;8168;49.036;7.690;2022-11-20T14:56:11;9.00;99.90
16128;DHT22;8168;49.036;7.690;2022-11-20T14:58:42;9.00;99.90
16128;DHT22;8168;49.036;7.690;2022-11-20T15:01:13;9.00;99.90
16128;DHT22;8168;49.036;7.690;2022-11-20T15:03:44;9.00;99.90
16128;DHT22;8168;49.036;7.690;2022-11-20T15:06:25;9.00;99.90
16128;DHT22;8168;49.036;7.690;2022-11-20T15:08:56;9.00;99.90
16128;DHT22;8168;49.036;7.690;2022-11-20T15:11:34;9.00;99.90
16128;DHT22;8168;49.036;7.690;2022-11-20T15:14:06;9.00;99.90
16128;DHT22;8168;49.036;7.690;2022-11-20T15:16:39;9.00;99.90
16128;DHT22;8168;49.036;7.690;2022-11-20T15:19:18;9.00;99.90
16128;DHT22;8168;49.036;7.690;2022-11-20T15:21:49;8.90;99.90
16128;DHT22;8168;49.036;7.690;2022-11-20T15:24:20;8.90;99.90
16128;DHT22;8168;49.036;7.690;2022-11-20T15:26:50;8.90;99.90
16128;DHT22;8168;49.036;7.690;2022-11-20T15:29:23;8.90;99.90
16128;DHT22;8168;49.036;7.690;2022-11-20T15:31:54;8.90;99.90
16128;DHT22;8168;49.036;7.690;2022-11-20T15:34:27;8.90;99.90
16128;DHT22;8168;49.036;7.690;2022-11-20T15:36:57;8.90;99.90
16128;DHT22;8168;49.036;7.690;2022-11-20T15:39:28;8.90;99.90
16128;DHT22;8168;49.036;7.690;2022-11-20T15:41:58;8.90;99.90
16128;DHT22;8168;49.036;7.690;2022-11-20T15:44:29;8.80;99.90
16128;DHT22;8168;49.036;7.690;2022-11-20T15:47:00;8.90;99.90
16128;DHT22;8168;49.036;7.690;2022-11-20T15:49:30;8.90;99.90
16128;DHT22;8168;49.036;7.690;2022-11-20T15:52:01;8.80;99.90
16128;DHT22;8168;49.036;7.690;2022-11-20T15:54:32;8.80;99.90
16128;DHT22;8168;49.036;7.690;2022-11-20T15:57:02;8.80;99.90
16128;DHT22;8168;49.036;7.690;2022-11-20T15:59:33;8.80;99.90
16128;DHT22;8168;49.036;7.690;2022-11-20T16:02:09;8.80;99.90
16128;DHT22;8168;49.036;7.690;2022-11-20T16:04:41;8.70;99.90
16128;DHT22;8168;49.036;7.690;2022-11-20T16:07:11;8.70;99.90
16128;DHT22;8168;49.036;7.690;2022-11-20T16:09:45;8.70;99.90
16128;DHT22;8168;49.036;7.690;2022-11-20T16:12:16;8.70;99.90
16128;DHT22;8168;49.036;7.690;2022-11-20T16:15:08;8.60;99.90
16128;DHT22;8168;49.036;7.690;2022-11-20T16:17:57;8.60;99.90
16128;DHT22;8168;49.036;7.690;2022-11-20T16:20:28;8.60;99.90
16128;DHT22;8168;49.036;7.690;2022-11-20T16:22:59;8.60;99.90
16128;DHT22;8168;49.036;7.690;2022-11-20T16:25:30;8.60;99.90
16128;DHT22;8168;49.036;7.690;2022-11-20T16:28:00;8.60;99.90
16128;DHT22;8168;49.036;7.690;2022-11-20T16:30:32;8.60;99.90
16128;DHT22;8168;49.036;7.690;2022-11-20T16:33:03;8.60;99.90
16128;DHT22;8168;49.036;7.690;2022-11-20T16:35:34;8.60;99.90
16128;DHT22;8168;49.036;7.690;2022-11-20T16:38:05;8.60;99.90
16128;DHT22;8168;49.036;7.690;2022-11-20T16:40:36;9.00;99.90
16128;DHT22;8168;49.036;7.690;2022-11-20T16:43:09;8.50;99.90
16128;DHT22;8168;49.036;7.690;2022-11-20T16:45:43;8.50;99.90
16128;DHT22;8168;49.036;7.690;2022-11-20T16:48:16;8.50;99.90
16128;DHT22;8168;49.036;7.690;2022-11-20T16:50:49;8.50;99.90
16128;DHT22;8168;49.036;7.690;2022-11-20T16:53:21;8.50;99.90
16128;DHT22;8168;49.036;7.690;2022-11-20T16:55:52;8.50;99.90
16128;DHT22;8168;49.036;7.690;2022-11-20T16:58:23;8.50;99.90
16128;DHT22;8168;49.036;7.690;2022-11-20T17:00:53;8.40;99.90
16128;DHT22;8168;49.036;7.690;2022-11-20T17:03:24;8.40;99.90
16128;DHT22;8168;49.036;7.690;2022-11-20T17:05:54;8.40;99.90
16128;DHT22;8168;49.036;7.690;2022-11-20T17:08:27;8.40;99.90
16128;DHT22;8168;49.036;7.690;2022-11-20T17:11:05;8.40;99.90
16128;DHT22;8168;49.036;7.690;2022-11-20T17:13:36;8.40;99.90
16128;DHT22;8168;49.036;7.690;2022-11-20T17:16:12;8.40;99.90
16128;DHT22;8168;49.036;7.690;2022-11-20T17:18:44;8.40;99.90
16128;DHT22;8168;49.036;7.690;2022-11-20T17:21:15;8.40;99.90
16128;DHT22;8168;49.036;7.690;2022-11-20T17:23:46;7.00;99.90
16128;DHT22;8168;49.036;7.690;2022-11-20T17:26:19;8.30;99.90
16128;DHT22;8168;49.036;7.690;2022-11-20T17:28:58;8.20;99.90
16128;DHT22;8168;49.036;7.690;2022-11-20T17:31:31;8.20;99.90
16128;DHT22;8168;49.036;7.690;2022-11-20T17:34:02;8.10;99.90
16128;DHT22;8168;49.036;7.690;2022-11-20T17:36:32;8.10;99.90
16128;DHT22;8168;49.036;7.690;2022-11-20T17:39:03;8.00;99.90
16128;DHT22;8168;49.036;7.690;2022-11-20T17:41:34;8.00;99.90
16128;DHT22;8168;49.036;7.690;2022-11-20T17:44:04;7.90;99.90
16128;DHT22;8168;49.036;7.690;2022-11-20T17:46:35;7.90;99.90
16128;DHT22;8168;49.036;7.690;2022-11-20T17:49:06;7.80;99.90
16128;DHT22;8168;49.036;7.690;2022-11-20T17:51:36;7.70;99.90
16128;DHT22;8168;49.036;7.690;2022-11-20T17:54:09;7.70;99.90
16128;DHT22;8168;49.036;7.690;2022-11-20T17:56:40;7.70;99.90
16128;DHT22;8168;49.036;7.690;2022-11-20T17:59:29;7.70;99.90
16128;DHT22;8168;49.036;7.690;2022-11-20T18:02:00;7.60;99.90
16128;DHT22;8168;49.036;7.690;2022-11-20T18:04:30;7.60;99.90
16128;DHT22;8168;49.036;7.690;2022-11-20T18:07:01;7.60;99.90
16128;DHT22;8168;49.036;7.690;2022-11-20T18:09:31;7.60;99.90
16128;DHT22;8168;49.036;7.690;2022-11-20T18:12:02;7.50;99.90
16128;DHT22;8168;49.036;7.690;2022-11-20T18:14:33;7.60;99.90
16128;DHT22;8168;49.036;7.690;2022-11-20T18:17:10;7.50;99.90